sensor_id;sensor_type;location;lat;lon;timestamp;pressure;altitude;pressure_sealevel;temperature;humidity
54248;BME280;40161;39.768;2.722;2023-03-13T00:01:44;101541.28;;;14.31;85.05
54248;BME280;40161;39.768;2.722;2023-03-13T00:04:10;101550.00;;;14.33;84.31
54248;BME280;40161;39.768;2.722;2023-03-13T00:06:37;101519.69;;;14.36;83.92
54248;BME280;40161;39.768;2.722;2023-03-13T00:09:05;101498.28;;;14.30;83.65
54248;BME280;40161;39.768;2.722;2023-03-13T00:11:31;101456.16;;;14.06;82.63
54248;BME280;40161;39.768;2.722;2023-03-13T00:13:59;101488.88;;;14.04;84.77
54248;BME280;40161;39.768;2.722;2023-03-13T00:16:27;101495.19;;;14.05;85.32
54248;BME280;40161;39.768;2.722;2023-03-13T00:18:54;101495.88;;;13.98;85.30
54248;BME280;40161;39.768;2.722;2023-03-13T00:21:22;101504.47;;;14.19;84.81
54248;BME280;40161;39.768;2.722;2023-03-13T00:23:49;101504.78;;;14.14;84.78
54248;BME280;40161;39.768;2.722;2023-03-13T00:26:16;101509.38;;;14.07;86.27
54248;BME280;40161;39.768;2.722;2023-03-13T00:28:42;101504.59;;;14.04;86.97
54248;BME280;40161;39.768;2.722;2023-03-13T00:31:09;101511.84;;;14.12;86.82
54248;BME280;40161;39.768;2.722;2023-03-13T00:33:38;101506.59;;;14.30;85.95
54248;BME280;40161;39.768;2.722;2023-03-13T00:36:10;101510.28;;;14.41;84.51
54248;BME280;40161;39.768;2.722;2023-03-13T00:38:36;101510.53;;;14.29;84.91
54248;BME280;40161;39.768;2.722;2023-03-13T00:41:10;101485.00;;;13.86;84.49
54248;BME280;40161;39.768;2.722;2023-03-13T00:43:37;101481.63;;;13.96;84.29
54248;BME280;40161;39.768;2.722;2023-03-13T00:46:03;101514.16;;;14.36;83.57
54248;BME280;40161;39.768;2.722;2023-03-13T00:48:30;101477.34;;;13.98;82.47
54248;BME280;40161;39.768;2.722;2023-03-13T00:50:55;101512.41;;;14.24;82.96
54248;BME280;40161;39.768;2.722;2023-03-13T00:53:21;101519.16;;;14.27;83.69
54248;BME280;40161;39.768;2.722;2023-03-13T00:56:07;101529.41;;;14.27;84.27
54248;BME280;40161;39.768;2.722;2023-03-13T00:58:35;101515.16;;;14.24;84.17
54248;BME280;40161;39.768;2.722;2023-03-13T01:01:17;101535.56;;;14.16;84.97
54248;BME280;40161;39.768;2.722;2023-03-13T01:03:46;101524.34;;;14.06;86.46
54248;BME280;40161;39.768;2.722;2023-03-13T01:06:14;101502.69;;;13.81;85.51
54248;BME280;40161;39.768;2.722;2023-03-13T01:08:40;101526.78;;;14.11;87.12
54248;BME280;40161;39.768;2.722;2023-03-13T01:11:14;101524.16;;;14.18;86.21
54248;BME280;40161;39.768;2.722;2023-03-13T01:13:40;101424.28;;;13.59;85.70
54248;BME280;40161;39.768;2.722;2023-03-13T01:16:09;101539.06;;;14.13;85.78
54248;BME280;40161;39.768;2.722;2023-03-13T01:18:38;101521.94;;;14.00;87.23
54248;BME280;40161;39.768;2.722;2023-03-13T01:21:05;101536.00;;;14.18;85.63
54248;BME280;40161;39.768;2.722;2023-03-13T01:23:30;101533.88;;;14.08;85.59
54248;BME280;40161;39.768;2.722;2023-03-13T01:25:56;101509.66;;;13.98;85.63
54248;BME280;40161;39.768;2.722;2023-03-13T01:28:23;101534.22;;;14.07;84.95
54248;BME280;40161;39.768;2.722;2023-03-13T01:30:49;101529.88;;;14.06;85.61
54248;BME280;40161;39.768;2.722;2023-03-13T01:33:14;101524.91;;;14.15;85.21
54248;BME280;40161;39.768;2.722;2023-03-13T01:35:40;101530.47;;;14.18;84.97
54248;BME280;40161;39.768;2.722;2023-03-13T01:38:06;101497.00;;;13.97;83.87
54248;BME280;40161;39.768;2.722;2023-03-13T01:40:41;101522.97;;;13.92;85.45
54248;BME280;40161;39.768;2.722;2023-03-13T01:43:22;101522.16;;;13.92;87.18
54248;BME280;40161;39.768;2.722;2023-03-13T01:46:18;101534.06;;;13.96;86.65
54248;BME280;40161;39.768;2.722;2023-03-13T01:49:07;101523.47;;;13.98;85.56
54248;BME280;40161;39.768;2.722;2023-03-13T01:51:39;101504.53;;;13.73;87.90
54248;BME280;40161;39.768;2.722;2023-03-13T01:56:39;101518.28;;;13.96;86.47
54248;BME280;40161;39.768;2.722;2023-03-13T01:59:07;101514.13;;;14.06;86.03
54248;BME280;40161;39.768;2.722;2023-03-13T02:01:35;101466.94;;;13.65;84.95
54248;BME280;40161;39.768;2.722;2023-03-13T02:04:00;101473.25;;;13.66;86.43
54248;BME280;40161;39.768;2.722;2023-03-13T02:06:29;101498.63;;;13.75;86.13
54248;BME280;40161;39.768;2.722;2023-03-13T02:09:08;101502.84;;;13.69;88.28
54248;BME280;40161;39.768;2.722;2023-03-13T02:11:45;101503.28;;;13.94;86.88
54248;BME280;40161;39.768;2.722;2023-03-13T02:14:12;101488.88;;;13.81;87.67
54248;BME280;40161;39.768;2.722;2023-03-13T02:16:38;101490.34;;;13.98;87.55
54248;BME280;40161;39.768;2.722;2023-03-13T02:19:15;101483.50;;;13.65;87.09
54248;BME280;40161;39.768;2.722;2023-03-13T02:27:38;101423.28;;;13.44;88.57
54248;BME280;40161;39.768;2.722;2023-03-13T02:30:04;101443.31;;;13.64;87.66
54248;BME280;40161;39.768;2.722;2023-03-13T02:32:30;101470.81;;;13.84;86.35
54248;BME280;40161;39.768;2.722;2023-03-13T02:35:01;101440.97;;;13.66;86.69
54248;BME280;40161;39.768;2.722;2023-03-13T02:37:29;101478.78;;;13.66;87.55
54248;BME280;40161;39.768;2.722;2023-03-13T02:39:55;101471.59;;;13.84;88.13
54248;BME280;40161;39.768;2.722;2023-03-13T02:42:22;101452.34;;;13.88;87.60
54248;BME280;40161;39.768;2.722;2023-03-13T02:44:49;101451.28;;;13.96;86.50
54248;BME280;40161;39.768;2.722;2023-03-13T02:47:21;101450.09;;;13.97;86.16
54248;BME280;40161;39.768;2.722;2023-03-13T02:49:47;101434.19;;;13.87;86.75
54248;BME280;40161;39.768;2.722;2023-03-13T02:52:17;101415.13;;;13.51;87.33
54248;BME280;40161;39.768;2.722;2023-03-13T02:54:46;101427.28;;;13.73;88.78
54248;BME280;40161;39.768;2.722;2023-03-13T02:57:13;101432.69;;;13.66;87.73
54248;BME280;40161;39.768;2.722;2023-03-13T02:59:39;101419.91;;;13.81;88.09
54248;BME280;40161;39.768;2.722;2023-03-13T03:02:05;101427.72;;;14.02;87.82
54248;BME280;40161;39.768;2.722;2023-03-13T03:04:30;101428.03;;;13.97;85.48
54248;BME280;40161;39.768;2.722;2023-03-13T03:06:56;101424.31;;;13.86;86.96
54248;BME280;40161;39.768;2.722;2023-03-13T03:09:22;101426.91;;;13.75;87.19
54248;BME280;40161;39.768;2.722;2023-03-13T03:11:49;101372.19;;;13.27;88.75
54248;BME280;40161;39.768;2.722;2023-03-13T03:14:14;101424.38;;;13.89;88.64
54248;BME280;40161;39.768;2.722;2023-03-13T03:16:40;101390.00;;;13.57;87.36
54248;BME280;40161;39.768;2.722;2023-03-13T03:19:06;101408.56;;;13.86;88.21
54248;BME280;40161;39.768;2.722;2023-03-13T03:21:33;101395.94;;;13.85;87.91
54248;BME280;40161;39.768;2.722;2023-03-13T03:23:59;101376.91;;;13.76;87.02
54248;BME280;40161;39.768;2.722;2023-03-13T03:26:25;101410.63;;;13.93;86.20
54248;BME280;40161;39.768;2.722;2023-03-13T03:28:51;101389.56;;;13.81;87.51
54248;BME280;40161;39.768;2.722;2023-03-13T03:31:17;101412.53;;;13.89;87.24
54248;BME280;40161;39.768;2.722;2023-03-13T03:33:43;101394.75;;;13.86;87.04
54248;BME280;40161;39.768;2.722;2023-03-13T03:36:11;101401.41;;;13.82;86.72
54248;BME280;40161;39.768;2.722;2023-03-13T03:38:38;101401.19;;;13.67;88.11
54248;BME280;40161;39.768;2.722;2023-03-13T03:41:05;101354.00;;;13.46;88.75
54248;BME280;40161;39.768;2.722;2023-03-13T03:43:31;101403.84;;;13.87;88.43
54248;BME280;40161;39.768;2.722;2023-03-13T03:45:56;101394.59;;;13.75;88.52
54248;BME280;40161;39.768;2.722;2023-03-13T03:48:22;101389.94;;;13.80;88.00
54248;BME280;40161;39.768;2.722;2023-03-13T03:50:47;101388.25;;;13.71;87.74
54248;BME280;40161;39.768;2.722;2023-03-13T03:53:13;101382.81;;;13.52;90.07
54248;BME280;40161;39.768;2.722;2023-03-13T03:55:39;101397.31;;;13.72;90.06
54248;BME280;40161;39.768;2.722;2023-03-13T03:58:04;101393.75;;;13.71;89.55
54248;BME280;40161;39.768;2.722;2023-03-13T04:00:30;101407.34;;;13.57;89.16
54248;BME280;40161;39.768;2.722;2023-03-13T04:02:56;101405.38;;;13.58;90.44
54248;BME280;40161;39.768;2.722;2023-03-13T04:05:22;101399.06;;;13.57;88.67
54248;BME280;40161;39.768;2.722;2023-03-13T04:07:48;101358.41;;;13.27;90.42
54248;BME280;40161;39.768;2.722;2023-03-13T04:10:14;101389.25;;;13.60;90.39
54248;BME280;40161;39.768;2.722;2023-03-13T04:12:39;101400.00;;;13.68;89.23
54248;BME280;40161;39.768;2.722;2023-03-13T04:15:06;101376.22;;;13.57;89.25
54248;BME280;40161;39.768;2.722;2023-03-13T04:17:32;101402.09;;;13.75;88.91
54248;BME280;40161;39.768;2.722;2023-03-13T04:19:58;101383.47;;;13.68;89.36
54248;BME280;40161;39.768;2.722;2023-03-13T04:22:23;101379.13;;;13.67;87.66
54248;BME280;40161;39.768;2.722;2023-03-13T04:24:49;101385.47;;;13.45;87.53
54248;BME280;40161;39.768;2.722;2023-03-13T04:27:14;101349.94;;;13.17;89.93
54248;BME280;40161;39.768;2.722;2023-03-13T04:29:40;101370.28;;;13.32;91.69
54248;BME280;40161;39.768;2.722;2023-03-13T04:32:06;101363.63;;;13.33;91.24
54248;BME280;40161;39.768;2.722;2023-03-13T04:34:32;101318.81;;;13.16;90.87
54248;BME280;40161;39.768;2.722;2023-03-13T04:36:57;101358.09;;;13.33;90.31
54248;BME280;40161;39.768;2.722;2023-03-13T04:39:23;101359.78;;;13.18;91.15
54248;BME280;40161;39.768;2.722;2023-03-13T04:41:53;101351.59;;;13.21;91.73
54248;BME280;40161;39.768;2.722;2023-03-13T04:44:20;101362.63;;;13.44;92.28
54248;BME280;40161;39.768;2.722;2023-03-13T04:46:47;101359.19;;;13.28;89.68
54248;BME280;40161;39.768;2.722;2023-03-13T04:49:13;101374.81;;;13.43;91.74
54248;BME280;40161;39.768;2.722;2023-03-13T04:51:40;101372.22;;;13.54;90.45
54248;BME280;40161;39.768;2.722;2023-03-13T04:54:05;101373.13;;;13.62;89.04
54248;BME280;40161;39.768;2.722;2023-03-13T04:56:31;101371.94;;;13.36;89.63
54248;BME280;40161;39.768;2.722;2023-03-13T04:58:56;101369.31;;;13.43;89.91
54248;BME280;40161;39.768;2.722;2023-03-13T05:01:22;101396.09;;;13.43;89.53
54248;BME280;40161;39.768;2.722;2023-03-13T05:03:48;101382.34;;;13.46;90.66
54248;BME280;40161;39.768;2.722;2023-03-13T05:06:13;101384.84;;;13.55;89.27
54248;BME280;40161;39.768;2.722;2023-03-13T05:08:39;101386.19;;;13.42;88.51
54248;BME280;40161;39.768;2.722;2023-03-13T05:11:05;101375.41;;;13.56;89.41
54248;BME280;40161;39.768;2.722;2023-03-13T05:13:30;101366.28;;;13.52;88.10
54248;BME280;40161;39.768;2.722;2023-03-13T05:15:56;101362.41;;;13.57;87.79
54248;BME280;40161;39.768;2.722;2023-03-13T05:18:22;101349.44;;;13.57;87.69
54248;BME280;40161;39.768;2.722;2023-03-13T05:20:47;101357.06;;;13.67;87.07
54248;BME280;40161;39.768;2.722;2023-03-13T05:23:13;101367.78;;;13.46;88.54
54248;BME280;40161;39.768;2.722;2023-03-13T05:25:39;101326.56;;;13.30;88.65
54248;BME280;40161;39.768;2.722;2023-03-13T05:28:04;101370.00;;;13.63;86.71
54248;BME280;40161;39.768;2.722;2023-03-13T05:30:30;101374.16;;;13.76;86.78
54248;BME280;40161;39.768;2.722;2023-03-13T05:32:55;101347.94;;;13.63;85.80
54248;BME280;40161;39.768;2.722;2023-03-13T05:35:21;101393.13;;;13.82;85.50
54248;BME280;40161;39.768;2.722;2023-03-13T05:37:46;101402.19;;;13.82;85.98
54248;BME280;40161;39.768;2.722;2023-03-13T05:40:12;101397.06;;;13.81;85.51
54248;BME280;40161;39.768;2.722;2023-03-13T05:42:38;101381.19;;;14.00;85.56
54248;BME280;40161;39.768;2.722;2023-03-13T05:45:04;101383.66;;;14.09;83.08
54248;BME280;40161;39.768;2.722;2023-03-13T05:47:30;101363.66;;;13.89;82.99
54248;BME280;40161;39.768;2.722;2023-03-13T05:49:55;101381.22;;;14.04;83.05
54248;BME280;40161;39.768;2.722;2023-03-13T05:52:21;101343.16;;;13.87;82.81
54248;BME280;40161;39.768;2.722;2023-03-13T05:54:47;101340.41;;;13.87;83.28
54248;BME280;40161;39.768;2.722;2023-03-13T05:57:12;101374.53;;;14.05;83.17
54248;BME280;40161;39.768;2.722;2023-03-13T05:59:38;101370.19;;;14.04;82.87
54248;BME280;40161;39.768;2.722;2023-03-13T06:02:04;101316.72;;;13.86;83.09
54248;BME280;40161;39.768;2.722;2023-03-13T06:04:30;101345.72;;;14.02;83.00
54248;BME280;40161;39.768;2.722;2023-03-13T06:06:55;101358.63;;;13.95;83.22
54248;BME280;40161;39.768;2.722;2023-03-13T06:09:21;101357.84;;;13.94;84.55
54248;BME280;40161;39.768;2.722;2023-03-13T06:11:46;101356.53;;;13.85;84.39
54248;BME280;40161;39.768;2.722;2023-03-13T06:14:12;101366.44;;;13.89;84.52
54248;BME280;40161;39.768;2.722;2023-03-13T06:16:38;101352.47;;;14.05;84.04
54248;BME280;40161;39.768;2.722;2023-03-13T06:19:03;101363.41;;;14.28;82.58
54248;BME280;40161;39.768;2.722;2023-03-13T06:21:29;101352.72;;;14.27;81.02
54248;BME280;40161;39.768;2.722;2023-03-13T06:23:55;101351.53;;;14.28;81.41
54248;BME280;40161;39.768;2.722;2023-03-13T06:26:20;101358.28;;;14.30;81.63
54248;BME280;40161;39.768;2.722;2023-03-13T06:28:48;101328.22;;;14.21;81.88
54248;BME280;40161;39.768;2.722;2023-03-13T06:31:14;101342.19;;;14.36;81.85
54248;BME280;40161;39.768;2.722;2023-03-13T06:33:39;101340.72;;;14.12;82.05
54248;BME280;40161;39.768;2.722;2023-03-13T06:36:05;101332.47;;;14.15;82.77
54248;BME280;40161;39.768;2.722;2023-03-13T06:38:31;101346.38;;;14.22;83.73
54248;BME280;40161;39.768;2.722;2023-03-13T06:40:57;101308.38;;;14.12;83.75
54248;BME280;40161;39.768;2.722;2023-03-13T06:43:22;101303.31;;;14.14;82.17
54248;BME280;40161;39.768;2.722;2023-03-13T06:45:48;101336.25;;;14.34;83.76
54248;BME280;40161;39.768;2.722;2023-03-13T06:48:14;101290.16;;;14.04;83.54
54248;BME280;40161;39.768;2.722;2023-03-13T06:50:40;101335.91;;;14.39;82.94
54248;BME280;40161;39.768;2.722;2023-03-13T06:53:06;101290.66;;;14.13;83.76
54248;BME280;40161;39.768;2.722;2023-03-13T06:55:31;101332.75;;;14.40;83.77
54248;BME280;40161;39.768;2.722;2023-03-13T06:57:57;101333.34;;;14.53;83.59
54248;BME280;40161;39.768;2.722;2023-03-13T07:00:23;101325.50;;;14.59;82.88
54248;BME280;40161;39.768;2.722;2023-03-13T07:02:49;101333.13;;;14.72;82.58
54248;BME280;40161;39.768;2.722;2023-03-13T07:05:15;101330.06;;;14.81;82.61
54248;BME280;40161;39.768;2.722;2023-03-13T07:07:41;101322.56;;;14.82;81.48
54248;BME280;40161;39.768;2.722;2023-03-13T07:10:08;101304.47;;;14.88;81.66
54248;BME280;40161;39.768;2.722;2023-03-13T07:12:35;101276.75;;;14.77;81.55
54248;BME280;40161;39.768;2.722;2023-03-13T07:15:01;101310.59;;;15.11;80.92
54248;BME280;40161;39.768;2.722;2023-03-13T07:17:26;101320.53;;;15.19;80.14
54248;BME280;40161;39.768;2.722;2023-03-13T07:19:52;101320.56;;;15.23;79.98
54248;BME280;40161;39.768;2.722;2023-03-13T07:22:17;101332.44;;;15.27;81.09
54248;BME280;40161;39.768;2.722;2023-03-13T07:24:43;101307.97;;;15.29;80.67
54248;BME280;40161;39.768;2.722;2023-03-13T07:27:08;101320.25;;;15.35;81.28
54248;BME280;40161;39.768;2.722;2023-03-13T07:29:34;101326.22;;;15.41;81.54
54248;BME280;40161;39.768;2.722;2023-03-13T07:31:59;101324.28;;;15.45;81.44
54248;BME280;40161;39.768;2.722;2023-03-13T07:34:25;101300.50;;;15.37;80.97
54248;BME280;40161;39.768;2.722;2023-03-13T07:36:50;101303.78;;;15.57;79.19
54248;BME280;40161;39.768;2.722;2023-03-13T07:39:16;101328.00;;;15.67;78.73
54248;BME280;40161;39.768;2.722;2023-03-13T07:41:41;101304.59;;;15.57;78.52
54248;BME280;40161;39.768;2.722;2023-03-13T07:44:07;101303.03;;;15.60;78.25
54248;BME280;40161;39.768;2.722;2023-03-13T07:46:33;101327.66;;;15.79;78.44
54248;BME280;40161;39.768;2.722;2023-03-13T07:48:58;101330.06;;;15.81;79.01
54248;BME280;40161;39.768;2.722;2023-03-13T07:51:25;101325.31;;;15.85;79.32
54248;BME280;40161;39.768;2.722;2023-03-13T07:53:51;101322.97;;;15.83;79.74
54248;BME280;40161;39.768;2.722;2023-03-13T07:56:19;101311.53;;;15.92;80.06
54248;BME280;40161;39.768;2.722;2023-03-13T07:58:46;101299.63;;;15.81;79.70
54248;BME280;40161;39.768;2.722;2023-03-13T08:01:20;101319.81;;;15.92;79.09
54248;BME280;40161;39.768;2.722;2023-03-13T08:03:46;101319.47;;;16.01;79.22
54248;BME280;40161;39.768;2.722;2023-03-13T08:06:20;101304.03;;;16.00;79.28
54248;BME280;40161;39.768;2.722;2023-03-13T08:08:47;101274.72;;;15.84;79.24
54248;BME280;40161;39.768;2.722;2023-03-13T08:11:21;101291.41;;;16.06;78.99
54248;BME280;40161;39.768;2.722;2023-03-13T08:13:48;101295.13;;;16.67;68.37
54248;BME280;40161;39.768;2.722;2023-03-13T08:16:16;101300.69;;;16.71;72.52
54248;BME280;40161;39.768;2.722;2023-03-13T08:18:47;101269.78;;;16.61;72.21
54248;BME280;40161;39.768;2.722;2023-03-13T08:21:15;101295.56;;;16.76;73.34
54248;BME280;40161;39.768;2.722;2023-03-13T08:23:41;101278.91;;;16.69;73.70
54248;BME280;40161;39.768;2.722;2023-03-13T08:26:18;101288.84;;;16.77;73.59
54248;BME280;40161;39.768;2.722;2023-03-13T08:28:47;101282.50;;;16.88;72.37
54248;BME280;40161;39.768;2.722;2023-03-13T08:31:22;101285.28;;;16.91;71.51
54248;BME280;40161;39.768;2.722;2023-03-13T08:33:48;101293.59;;;17.09;69.97
54248;BME280;40161;39.768;2.722;2023-03-13T08:36:16;101284.88;;;17.18;68.07
54248;BME280;40161;39.768;2.722;2023-03-13T08:38:43;101250.78;;;17.28;66.66
54248;BME280;40161;39.768;2.722;2023-03-13T08:41:10;101257.91;;;17.29;66.11
54248;BME280;40161;39.768;2.722;2023-03-13T08:43:36;101294.31;;;17.63;66.43
54248;BME280;40161;39.768;2.722;2023-03-13T08:46:01;101285.56;;;17.79;65.00
54248;BME280;40161;39.768;2.722;2023-03-13T08:48:27;101288.69;;;18.65;57.46
54248;BME280;40161;39.768;2.722;2023-03-13T08:51:20;101289.38;;;18.84;56.62
54248;BME280;40161;39.768;2.722;2023-03-13T08:53:45;101278.19;;;18.91;57.42
54248;BME280;40161;39.768;2.722;2023-03-13T08:56:13;101293.88;;;19.15;56.60
54248;BME280;40161;39.768;2.722;2023-03-13T08:58:39;101252.38;;;18.90;57.12
54248;BME280;40161;39.768;2.722;2023-03-13T09:01:08;101287.91;;;19.17;56.33
54248;BME280;40161;39.768;2.722;2023-03-13T09:03:34;101289.03;;;19.61;55.32
54248;BME280;40161;39.768;2.722;2023-03-13T09:06:00;101286.22;;;19.99;54.23
54248;BME280;40161;39.768;2.722;2023-03-13T09:08:27;101299.44;;;20.25;52.67
54248;BME280;40161;39.768;2.722;2023-03-13T09:11:08;101303.72;;;19.99;53.77
54248;BME280;40161;39.768;2.722;2023-03-13T09:13:36;101282.31;;;19.96;54.37
54248;BME280;40161;39.768;2.722;2023-03-13T09:16:17;101291.78;;;20.87;50.73
54248;BME280;40161;39.768;2.722;2023-03-13T09:18:43;101268.94;;;20.42;52.40
54248;BME280;40161;39.768;2.722;2023-03-13T09:21:21;101265.53;;;20.57;51.84
54248;BME280;40161;39.768;2.722;2023-03-13T09:23:48;101273.78;;;20.37;53.31
54248;BME280;40161;39.768;2.722;2023-03-13T09:26:14;101268.31;;;20.30;53.34
54248;BME280;40161;39.768;2.722;2023-03-13T09:28:41;101273.50;;;20.59;53.50
54248;BME280;40161;39.768;2.722;2023-03-13T09:31:08;101279.97;;;20.52;54.27
54248;BME280;40161;39.768;2.722;2023-03-13T09:33:34;101277.34;;;20.92;53.02
54248;BME280;40161;39.768;2.722;2023-03-13T09:36:00;101239.53;;;20.64;53.19
54248;BME280;40161;39.768;2.722;2023-03-13T09:38:25;101264.13;;;20.96;52.38
54248;BME280;40161;39.768;2.722;2023-03-13T09:40:52;101242.03;;;20.58;53.61
54248;BME280;40161;39.768;2.722;2023-03-13T09:45:56;101277.44;;;21.08;52.30
54248;BME280;40161;39.768;2.722;2023-03-13T09:48:57;101285.22;;;21.21;52.82
54248;BME280;40161;39.768;2.722;2023-03-13T09:51:27;101250.97;;;20.97;53.00
54248;BME280;40161;39.768;2.722;2023-03-13T09:53:55;101287.94;;;21.48;51.71
54248;BME280;40161;39.768;2.722;2023-03-13T09:56:24;101262.53;;;21.19;52.70
54248;BME280;40161;39.768;2.722;2023-03-13T09:58:58;101265.91;;;21.30;52.31
54248;BME280;40161;39.768;2.722;2023-03-13T10:01:28;101296.09;;;21.39;51.57
54248;BME280;40161;39.768;2.722;2023-03-13T10:04:03;101287.00;;;21.35;52.07
54248;BME280;40161;39.768;2.722;2023-03-13T10:06:34;101266.09;;;21.19;52.47
54248;BME280;40161;39.768;2.722;2023-03-13T10:09:14;101251.28;;;21.46;51.48
54248;BME280;40161;39.768;2.722;2023-03-13T10:17:30;101255.38;;;21.81;50.25
54248;BME280;40161;39.768;2.722;2023-03-13T10:20:00;101240.69;;;21.37;50.55
54248;BME280;40161;39.768;2.722;2023-03-13T10:22:31;101249.72;;;21.21;51.56
54248;BME280;40161;39.768;2.722;2023-03-13T10:25:07;101250.91;;;21.00;53.82
54248;BME280;40161;39.768;2.722;2023-03-13T10:27:49;101236.16;;;21.23;51.57
54248;BME280;40161;39.768;2.722;2023-03-13T10:30:26;101243.28;;;21.24;51.43
54248;BME280;40161;39.768;2.722;2023-03-13T10:32:56;101257.78;;;21.16;52.80
54248;BME280;40161;39.768;2.722;2023-03-13T10:35:30;101251.94;;;21.30;50.92
54248;BME280;40161;39.768;2.722;2023-03-13T10:38:02;101182.50;;;21.12;50.24
54248;BME280;40161;39.768;2.722;2023-03-13T10:40:29;101245.00;;;21.62;49.95
54248;BME280;40161;39.768;2.722;2023-03-13T10:43:17;101240.63;;;21.61;50.24
54248;BME280;40161;39.768;2.722;2023-03-13T10:45:43;101218.16;;;21.48;49.52
54248;BME280;40161;39.768;2.722;2023-03-13T10:48:22;101243.84;;;21.59;50.17
54248;BME280;40161;39.768;2.722;2023-03-13T10:50:50;101176.06;;;21.15;50.49
54248;BME280;40161;39.768;2.722;2023-03-13T10:53:20;101204.94;;;21.28;50.58
54248;BME280;40161;39.768;2.722;2023-03-13T10:55:46;101221.34;;;21.46;49.71
54248;BME280;40161;39.768;2.722;2023-03-13T10:58:19;101192.66;;;21.46;49.34
54248;BME280;40161;39.768;2.722;2023-03-13T11:00:46;101222.28;;;21.60;50.05
54248;BME280;40161;39.768;2.722;2023-03-13T11:03:16;101204.59;;;21.66;48.99
54248;BME280;40161;39.768;2.722;2023-03-13T11:05:44;101202.28;;;21.81;48.38
54248;BME280;40161;39.768;2.722;2023-03-13T11:13:32;101191.34;;;22.07;46.97
54248;BME280;40161;39.768;2.722;2023-03-13T11:21:23;101190.59;;;22.22;46.89
54248;BME280;40161;39.768;2.722;2023-03-13T11:24:06;101175.88;;;22.02;47.06
54248;BME280;40161;39.768;2.722;2023-03-13T11:26:37;101177.72;;;21.92;46.65
54248;BME280;40161;39.768;2.722;2023-03-13T11:31:38;101180.50;;;21.92;47.15
54248;BME280;40161;39.768;2.722;2023-03-13T11:34:14;101192.81;;;21.95;47.40
54248;BME280;40161;39.768;2.722;2023-03-13T11:37:22;101185.00;;;22.06;47.12
54248;BME280;40161;39.768;2.722;2023-03-13T11:43:22;101197.69;;;21.91;47.85
54248;BME280;40161;39.768;2.722;2023-03-13T11:56:03;101182.94;;;21.90;48.73
54248;BME280;40161;39.768;2.722;2023-03-13T11:58:37;101182.31;;;21.83;48.42
54248;BME280;40161;39.768;2.722;2023-03-13T12:03:47;101171.47;;;21.85;48.79
54248;BME280;40161;39.768;2.722;2023-03-13T12:06:37;101163.53;;;21.83;48.43
54248;BME280;40161;39.768;2.722;2023-03-13T12:17:02;101162.06;;;21.95;48.79
54248;BME280;40161;39.768;2.722;2023-03-13T12:19:38;101168.88;;;21.94;48.34
54248;BME280;40161;39.768;2.722;2023-03-13T12:22:20;101158.91;;;21.76;49.44
54248;BME280;40161;39.768;2.722;2023-03-13T12:24:54;101145.47;;;21.88;49.09
54248;BME280;40161;39.768;2.722;2023-03-13T12:27:28;101157.81;;;22.07;49.43
54248;BME280;40161;39.768;2.722;2023-03-13T12:35:28;101132.75;;;22.03;48.89
54248;BME280;40161;39.768;2.722;2023-03-13T12:38:03;101132.59;;;22.10;48.25
54248;BME280;40161;39.768;2.722;2023-03-13T12:40:38;101130.13;;;22.12;47.46
54248;BME280;40161;39.768;2.722;2023-03-13T12:43:27;101099.28;;;21.83;48.07
54248;BME280;40161;39.768;2.722;2023-03-13T12:54:16;101103.97;;;21.70;48.50
54248;BME280;40161;39.768;2.722;2023-03-13T12:56:46;101095.19;;;21.71;48.53
54248;BME280;40161;39.768;2.722;2023-03-13T12:59:22;101090.53;;;21.65;49.19
54248;BME280;40161;39.768;2.722;2023-03-13T13:01:52;101064.44;;;21.55;48.45
54248;BME280;40161;39.768;2.722;2023-03-13T13:04:21;101070.75;;;21.75;48.46
54248;BME280;40161;39.768;2.722;2023-03-13T13:06:58;101083.22;;;21.87;48.60
54248;BME280;40161;39.768;2.722;2023-03-13T13:09:36;101044.63;;;21.66;47.96
54248;BME280;40161;39.768;2.722;2023-03-13T13:12:20;101057.13;;;21.94;48.42
54248;BME280;40161;39.768;2.722;2023-03-13T13:17:32;101060.97;;;21.84;47.88
54248;BME280;40161;39.768;2.722;2023-03-13T13:20:25;101054.16;;;21.68;47.35
54248;BME280;40161;39.768;2.722;2023-03-13T13:22:50;101044.91;;;21.71;48.73
54248;BME280;40161;39.768;2.722;2023-03-13T13:32:50;100978.81;;;21.48;48.61
54248;BME280;40161;39.768;2.722;2023-03-13T13:35:30;101004.31;;;21.83;48.28
54248;BME280;40161;39.768;2.722;2023-03-13T13:43:32;100992.25;;;22.02;47.06
54248;BME280;40161;39.768;2.722;2023-03-13T13:46:05;100991.31;;;21.93;47.94
54248;BME280;40161;39.768;2.722;2023-03-13T13:48:41;100928.03;;;21.70;47.64
54248;BME280;40161;39.768;2.722;2023-03-13T13:53:43;100982.84;;;21.80;48.52
54248;BME280;40161;39.768;2.722;2023-03-13T14:01:45;100963.66;;;21.66;48.17
54248;BME280;40161;39.768;2.722;2023-03-13T14:04:21;100962.31;;;21.54;49.36
54248;BME280;40161;39.768;2.722;2023-03-13T14:06:50;100946.03;;;21.52;48.73
54248;BME280;40161;39.768;2.722;2023-03-13T14:09:45;100895.03;;;21.16;48.84
54248;BME280;40161;39.768;2.722;2023-03-13T14:15:20;100924.13;;;21.51;49.37
54248;BME280;40161;39.768;2.722;2023-03-13T14:17:48;100924.13;;;21.35;49.73
54248;BME280;40161;39.768;2.722;2023-03-13T14:23:07;100896.16;;;21.18;49.97
54248;BME280;40161;39.768;2.722;2023-03-13T14:25:47;100902.34;;;21.26;50.81
54248;BME280;40161;39.768;2.722;2023-03-13T14:28:17;100868.53;;;21.24;50.03
54248;BME280;40161;39.768;2.722;2023-03-13T14:30:44;100872.34;;;21.30;49.48
54248;BME280;40161;39.768;2.722;2023-03-13T14:33:10;100883.81;;;21.36;49.46
54248;BME280;40161;39.768;2.722;2023-03-13T14:35:35;100866.28;;;21.35;49.48
54248;BME280;40161;39.768;2.722;2023-03-13T14:38:01;100858.69;;;21.36;49.80